Time;durP1;ratioP1;P1;durP2;ratioP2;P2;SDS_P1;SDS_P2;PMS_P1;PMS_P2;Temp;Humidity;BMP_temperature;BMP_pressure;BME280_temperature;BME280_humidity;BME280_pressure;Samples;Min_cycle;Max_cycle;Signal;HPM_P1;HPM_P2
2023/02/17 00:02:04;;;;;;;0.20;0.20;;;7.40;99.90;;;;;;4995348;28;20022;-76
2023/02/17 00:04:30;;;;;;;0.20;0.20;;;7.40;99.90;;;;;;4995096;28;20072;-76
2023/02/17 00:06:56;;;;;;;0.10;0.10;;;7.40;99.90;;;;;;4993605;28;20058;-76
2023/02/17 00:09:23;;;;;;;0.10;0.10;;;7.40;99.90;;;;;;4995028;28;20527;-76
2023/02/17 00:11:48;;;;;;;0.10;0.10;;;7.40;99.90;;;;;;4994995;28;20147;-76
2023/02/17 00:14:14;;;;;;;0.10;0.10;;;7.30;99.90;;;;;;4994756;28;20034;-75
2023/02/17 00:16:40;;;;;;;0.10;0.10;;;7.30;99.90;;;;;;4993698;28;20568;-75
2023/02/17 00:19:22;;;;;;;0.10;0.10;;;7.30;99.90;;;;;;4994861;28;20026;-75
2023/02/17 00:21:48;;;;;;;0.10;0.10;;;7.30;99.90;;;;;;4994669;28;20073;-75
2023/02/17 00:24:14;;;;;;;0.10;0.10;;;7.20;99.90;;;;;;4994853;28;20026;-75
2023/02/17 00:26:40;;;;;;;0.10;0.10;;;7.20;99.90;;;;;;4994580;28;20030;-75
2023/02/17 00:29:05;;;;;;;0.10;0.10;;;7.20;99.90;;;;;;4993357;28;20027;-75
2023/02/17 00:31:31;;;;;;;0.10;0.10;;;7.10;99.90;;;;;;4994400;28;20018;-75
2023/02/17 00:33:56;;;;;;;0.20;0.20;;;7.10;99.90;;;;;;4994596;28;20023;-75
2023/02/17 00:36:22;;;;;;;0.10;0.10;;;7.10;99.90;;;;;;4994266;28;20037;-75
2023/02/17 00:38:48;;;;;;;0.10;0.10;;;7.00;99.90;;;;;;4994904;28;20386;-75
2023/02/17 00:41:15;;;;;;;0.10;0.10;;;7.00;99.90;;;;;;4994433;28;20109;-75
2023/02/17 00:43:41;;;;;;;0.10;0.10;;;7.00;99.90;;;;;;4994806;28;20018;-75
2023/02/17 00:46:06;;;;;;;0.10;0.10;;;7.00;99.90;;;;;;4993041;28;20128;-75
2023/02/17 00:48:32;;;;;;;0.10;0.10;;;7.00;99.90;;;;;;5014109;28;20038;-75
2023/02/17 00:50:57;;;;;;;0.10;0.10;;;7.00;99.90;;;;;;5012618;28;20403;-75
2023/02/17 00:53:23;;;;;;;0.10;0.10;;;6.90;99.90;;;;;;5010330;28;20076;-75
2023/02/17 00:55:49;;;;;;;0.10;0.10;;;7.00;99.90;;;;;;5014927;28;20026;-75
2023/02/17 00:58:15;;;;;;;0.10;0.10;;;7.00;99.90;;;;;;5006192;28;20018;-75
2023/02/17 01:00:40;;;;;;;0.10;0.10;;;7.00;99.90;;;;;;4995139;28;20455;-75
2023/02/17 01:03:06;;;;;;;0.10;0.10;;;6.90;99.90;;;;;;4995135;28;20026;-75
2023/02/17 01:05:31;;;;;;;0.10;0.10;;;6.90;99.90;;;;;;4996166;28;20022;-75
2023/02/17 01:07:57;;;;;;;0.20;0.20;;;6.90;99.90;;;;;;4993673;28;20063;-75
2023/02/17 01:10:22;;;;;;;0.10;0.10;;;6.90;99.90;;;;;;4994511;28;20039;-75
2023/02/17 01:12:48;;;;;;;0.15;0.15;;;6.90;99.90;;;;;;4992444;28;20030;-75
2023/02/17 01:15:14;;;;;;;0.20;0.20;;;6.90;99.90;;;;;;5004946;28;20454;-74
2023/02/17 01:17:39;;;;;;;0.10;0.10;;;6.80;99.90;;;;;;5001864;28;20018;-75
2023/02/17 01:20:06;;;;;;;0.10;0.10;;;6.80;99.90;;;;;;4993801;28;20092;-75
2023/02/17 01:22:32;;;;;;;0.20;0.20;;;6.90;99.90;;;;;;4993768;28;20030;-75
2023/02/17 01:24:57;;;;;;;0.08;0.08;;;6.90;99.90;;;;;;4993611;28;20109;-75
2023/02/17 01:27:23;;;;;;;0.10;0.10;;;6.80;99.90;;;;;;4993720;28;20062;-75
2023/02/17 01:29:48;;;;;;;0.10;0.10;;;6.90;99.90;;;;;;4993482;28;20032;-76
2023/02/17 01:32:14;;;;;;;0.10;0.10;;;6.90;99.90;;;;;;5008938;28;20022;-75
2023/02/17 01:34:39;;;;;;;0.10;0.10;;;6.90;99.90;;;;;;4991739;28;20134;-75
2023/02/17 01:37:05;;;;;;;0.10;0.10;;;6.80;99.90;;;;;;4993167;28;20031;-76
2023/02/17 01:39:30;;;;;;;0.20;0.20;;;6.80;99.90;;;;;;5001184;28;20022;-75
2023/02/17 01:41:56;;;;;;;0.10;0.10;;;6.80;99.90;;;;;;5013229;28;20022;-76
2023/02/17 01:44:24;;;;;;;0.10;0.10;;;6.80;99.90;;;;;;5008503;28;20136;-75
2023/02/17 01:46:52;;;;;;;0.20;0.20;;;6.80;99.90;;;;;;5013415;28;20022;-75
2023/02/17 01:49:23;;;;;;;0.10;0.10;;;6.90;99.90;;;;;;5012843;28;20156;-75
2023/02/17 01:51:54;;;;;;;0.13;0.13;;;6.90;99.90;;;;;;5013281;28;20022;-75
2023/02/17 01:54:33;;;;;;;0.10;0.10;;;6.90;99.90;;;;;;5012887;28;20491;-75
2023/02/17 01:57:00;;;;;;;0.10;0.10;;;6.90;99.90;;;;;;4998776;28;20035;-75
2023/02/17 01:59:28;;;;;;;0.10;0.10;;;6.90;99.90;;;;;;4997907;28;20022;-75
2023/02/17 02:01:57;;;;;;;0.10;0.10;;;6.90;99.90;;;;;;4993293;28;20069;-75
2023/02/17 02:04:26;;;;;;;0.13;0.13;;;6.90;99.90;;;;;;4991967;28;20023;-75
2023/02/17 02:06:52;;;;;;;0.10;0.10;;;6.90;99.90;;;;;;4990558;28;20081;-75
2023/02/17 02:09:21;;;;;;;0.10;0.10;;;7.00;99.90;;;;;;4993145;28;20034;-75
2023/02/17 02:11:48;;;;;;;0.10;0.10;;;7.00;99.90;;;;;;4993293;28;20026;-75
2023/02/17 02:14:15;;;;;;;0.17;0.17;;;6.90;99.90;;;;;;4991908;28;20023;-75
2023/02/17 02:17:05;;;;;;;0.20;0.20;;;6.90;99.90;;;;;;4993176;28;20023;-75
2023/02/17 02:20:00;;;;;;;0.10;0.10;;;6.90;99.90;;;;;;5008426;28;20395;-75
2023/02/17 02:22:47;;;;;;;0.10;0.10;;;6.90;99.90;;;;;;4984669;28;20034;-75
2023/02/17 02:25:41;;;;;;;0.20;0.20;;;6.90;99.90;;;;;;4993350;28;20029;-75
2023/02/17 02:28:09;;;;;;;0.10;0.10;;;6.90;99.90;;;;;;4993268;28;20056;-75
2023/02/17 02:30:46;;;;;;;0.13;0.13;;;6.90;99.90;;;;;;5008270;28;20030;-75
2023/02/17 02:33:40;;;;;;;0.17;0.17;;;6.90;99.90;;;;;;4992517;28;20037;-76
2023/02/17 02:36:19;;;;;;;0.10;0.10;;;7.00;99.90;;;;;;4990914;28;20023;-75
2023/02/17 02:39:03;;;;;;;0.10;0.10;;;6.90;99.90;;;;;;4973710;28;20106;-76
2023/02/17 02:41:35;;;;;;;0.10;0.10;;;7.00;99.90;;;;;;4988038;28;20052;-76
2023/02/17 02:44:07;;;;;;;0.10;0.10;;;7.00;99.90;;;;;;4993153;28;20030;-76
2023/02/17 02:46:33;;;;;;;0.10;0.10;;;7.00;99.90;;;;;;4996758;28;20088;-76
2023/02/17 02:49:00;;;;;;;0.10;0.10;;;7.00;99.90;;;;;;4996508;28;20447;-76
2023/02/17 02:51:34;;;;;;;0.10;0.10;;;7.10;99.90;;;;;;4996550;28;20034;-76
2023/02/17 02:54:10;;;;;;;0.10;0.10;;;7.10;99.90;;;;;;4996327;28;20082;-75
2023/02/17 02:56:42;;;;;;;0.10;0.10;;;7.10;99.90;;;;;;4996541;28;20030;-76
2023/02/17 02:59:44;;;;;;;0.10;0.10;;;7.10;99.90;;;;;;4996119;28;20488;-76
2023/02/17 03:02:28;;;;;;;0.20;0.20;;;7.10;99.90;;;;;;4996320;28;20534;-76
2023/02/17 03:05:23;;;;;;;0.13;0.13;;;7.10;99.90;;;;;;4996096;28;20026;-76
2023/02/17 03:07:59;;;;;;;0.10;0.10;;;7.10;99.90;;;;;;4996513;28;20502;-76
2023/02/17 03:10:25;;;;;;;0.10;0.10;;;7.10;99.90;;;;;;4995838;28;20045;-76
2023/02/17 03:12:51;;;;;;;0.10;0.10;;;7.10;99.90;;;;;;4981017;28;20043;-76
2023/02/17 03:15:28;;;;;;;0.10;0.10;;;7.00;99.90;;;;;;4976405;28;20392;-75
2023/02/17 03:17:58;;;;;;;0.13;0.13;;;7.00;99.90;;;;;;4994157;28;20077;-76
2023/02/17 03:20:25;;;;;;;0.10;0.10;;;7.00;99.90;;;;;;4995845;28;20054;-75
2023/02/17 03:22:51;;;;;;;0.08;0.08;;;7.00;99.90;;;;;;4996132;28;20506;-75
2023/02/17 03:25:16;;;;;;;0.10;0.10;;;7.00;99.90;;;;;;4995631;28;20105;-76
2023/02/17 03:27:42;;;;;;;0.10;0.10;;;7.00;99.90;;;;;;4995871;28;20478;-76
2023/02/17 03:30:08;;;;;;;0.10;0.10;;;7.10;99.90;;;;;;4995561;28;20506;-76
2023/02/17 03:32:34;;;;;;;0.10;0.10;;;7.10;99.90;;;;;;4995813;28;20045;-76
2023/02/17 03:34:59;;;;;;;0.10;0.10;;;7.10;99.90;;;;;;4996002;28;20026;-75
2023/02/17 03:37:25;;;;;;;0.10;0.10;;;7.10;99.90;;;;;;4995706;28;20049;-76
2023/02/17 03:39:51;;;;;;;0.10;0.10;;;7.20;99.90;;;;;;4995450;28;20105;-75
2023/02/17 03:42:16;;;;;;;0.10;0.10;;;7.20;99.90;;;;;;4995591;28;20503;-76
2023/02/17 03:44:42;;;;;;;0.10;0.10;;;7.20;99.90;;;;;;4995660;28;20034;-75
2023/02/17 03:47:07;;;;;;;0.10;0.10;;;7.20;99.90;;;;;;4995457;28;20522;-74
2023/02/17 03:49:33;;;;;;;0.17;0.17;;;7.30;99.90;;;;;;4993966;28;20105;-75
2023/02/17 03:51:58;;;;;;;0.10;0.10;;;7.20;99.90;;;;;;4995833;28;20105;-75
2023/02/17 03:54:25;;;;;;;0.10;0.10;;;7.20;99.90;;;;;;4995078;28;20027;-75
2023/02/17 03:56:50;;;;;;;0.10;0.10;;;7.20;99.90;;;;;;4994936;28;20073;-75
2023/02/17 03:59:16;;;;;;;0.10;0.10;;;7.20;99.90;;;;;;4995022;28;20026;-75
2023/02/17 04:01:42;;;;;;;0.10;0.10;;;7.20;99.90;;;;;;5010322;28;20126;-75
2023/02/17 04:04:07;;;;;;;0.17;0.17;;;7.20;99.90;;;;;;4995229;28;20506;-75
2023/02/17 04:06:33;;;;;;;0.10;0.10;;;7.20;99.90;;;;;;4995286;28;20113;-75
2023/02/17 04:08:58;;;;;;;0.10;0.10;;;7.20;99.90;;;;;;4994925;28;20074;-75
2023/02/17 04:11:24;;;;;;;0.00;0.00;;;7.10;99.90;;;;;;4993109;28;20041;-75
2023/02/17 04:13:50;;;;;;;0.10;0.10;;;7.20;99.90;;;;;;4993314;28;20415;-75
2023/02/17 04:16:15;;;;;;;0.10;0.10;;;7.20;99.90;;;;;;4990758;28;20080;-75
2023/02/17 04:18:41;;;;;;;0.20;0.20;;;7.20;99.90;;;;;;4994829;28;20072;-75
2023/02/17 04:21:07;;;;;;;0.10;0.10;;;7.30;99.90;;;;;;4994673;28;20361;-75
2023/02/17 04:23:34;;;;;;;0.10;0.10;;;7.30;99.90;;;;;;4990787;28;20522;-75
2023/02/17 04:26:00;;;;;;;0.10;0.10;;;7.20;99.90;;;;;;4993066;28;20033;-75
2023/02/17 04:28:25;;;;;;;0.20;0.20;;;7.20;99.90;;;;;;4993364;28;20495;-75
2023/02/17 04:30:51;;;;;;;0.10;0.10;;;7.20;99.90;;;;;;4993318;28;20026;-75
2023/02/17 04:33:17;;;;;;;0.20;0.20;;;7.20;99.90;;;;;;4994607;28;20023;-75
2023/02/17 04:35:43;;;;;;;0.10;0.10;;;7.20;99.90;;;;;;5009602;28;20035;-75
2023/02/17 04:38:09;;;;;;;0.10;0.10;;;7.20;99.90;;;;;;4994824;28;20134;-75
2023/02/17 04:40:36;;;;;;;0.10;0.10;;;7.20;99.90;;;;;;4993109;28;20033;-75
2023/02/17 04:43:02;;;;;;;0.10;0.10;;;7.10;99.90;;;;;;4994525;28;20060;-75
2023/02/17 04:45:28;;;;;;;0.10;0.10;;;7.20;99.90;;;;;;4994613;28;20395;-75
2023/02/17 04:47:54;;;;;;;0.10;0.10;;;7.20;99.90;;;;;;4992294;28;20097;-75
2023/02/17 04:50:20;;;;;;;0.10;0.10;;;7.20;99.90;;;;;;4994855;28;20459;-75
2023/02/17 04:52:45;;;;;;;0.10;0.10;;;7.10;99.90;;;;;;4995015;28;20034;-74
2023/02/17 04:55:11;;;;;;;0.10;0.10;;;7.10;99.90;;;;;;4995167;28;20022;-75
2023/02/17 04:57:36;;;;;;;0.10;0.10;;;7.10;99.90;;;;;;4994969;28;20022;-75
2023/02/17 05:00:04;;;;;;;0.10;0.10;;;7.10;99.90;;;;;;4995059;28;20026;-75
2023/02/17 05:02:30;;;;;;;0.10;0.10;;;7.20;99.90;;;;;;4993960;28;20070;-75
2023/02/17 05:04:56;;;;;;;0.10;0.10;;;7.20;99.90;;;;;;4993957;28;20030;-75
2023/02/17 05:07:22;;;;;;;0.10;0.10;;;7.20;99.90;;;;;;4994044;28;20483;-75
2023/02/17 05:09:47;;;;;;;0.10;0.10;;;7.20;99.90;;;;;;4993203;28;20125;-75
2023/02/17 05:12:13;;;;;;;0.10;0.10;;;7.30;99.90;;;;;;4994062;28;20066;-75
2023/02/17 05:14:38;;;;;;;0.10;0.10;;;7.30;99.90;;;;;;4993768;28;20030;-75
2023/02/17 05:17:04;;;;;;;0.10;0.10;;;7.30;99.90;;;;;;4994137;28;20025;-75
2023/02/17 05:19:30;;;;;;;0.10;0.10;;;7.30;99.90;;;;;;4993666;28;20117;-75
2023/02/17 05:21:55;;;;;;;0.10;0.10;;;7.30;99.90;;;;;;4993953;28;20080;-75
2023/02/17 05:24:21;;;;;;;0.10;0.10;;;7.30;99.90;;;;;;4993855;28;20483;-75
2023/02/17 05:26:46;;;;;;;0.10;0.10;;;7.30;99.90;;;;;;4993532;28;20102;-75
2023/02/17 05:29:12;;;;;;;0.10;0.10;;;7.20;99.90;;;;;;4987023;28;20117;-75
2023/02/17 05:31:37;;;;;;;0.10;0.10;;;7.30;99.90;;;;;;4974271;28;20069;-75
2023/02/17 05:34:03;;;;;;;0.10;0.10;;;7.20;99.90;;;;;;4976202;28;20055;-75
2023/02/17 05:36:28;;;;;;;0.10;0.10;;;7.20;99.90;;;;;;4993672;28;20066;-75
2023/02/17 05:38:54;;;;;;;0.10;0.10;;;7.20;99.90;;;;;;4988744;28;20035;-75
2023/02/17 05:41:19;;;;;;;0.10;0.10;;;7.20;99.90;;;;;;4974258;28;20027;-75
2023/02/17 05:43:47;;;;;;;0.13;0.13;;;7.20;99.90;;;;;;4973478;28;20511;-75
2023/02/17 05:46:13;;;;;;;0.10;0.10;;;7.20;99.90;;;;;;4993881;28;20038;-75
2023/02/17 05:48:38;;;;;;;0.10;0.10;;;7.20;99.90;;;;;;4993154;28;20029;-75
2023/02/17 05:51:04;;;;;;;0.10;0.10;;;7.20;99.90;;;;;;4989051;28;20404;-75
2023/02/17 05:53:30;;;;;;;0.10;0.10;;;7.20;99.90;;;;;;4974128;28;20413;-74
2023/02/17 05:55:56;;;;;;;0.10;0.10;;;7.20;99.90;;;;;;4979882;28;20027;-75
2023/02/17 05:58:21;;;;;;;0.10;0.10;;;7.20;99.90;;;;;;4993752;28;20570;-74
2023/02/17 06:00:47;;;;;;;0.10;0.10;;;7.20;99.90;;;;;;4993455;28;20023;-74
2023/02/17 06:03:13;;;;;;;0.10;0.10;;;7.20;99.90;;;;;;4993364;28;20050;-74
2023/02/17 06:05:38;;;;;;;0.10;0.10;;;7.20;99.90;;;;;;4993194;28;20031;-74
2023/02/17 06:08:04;;;;;;;0.10;0.10;;;7.20;99.90;;;;;;4993315;28;20034;-74
2023/02/17 06:10:30;;;;;;;0.10;0.10;;;7.20;99.90;;;;;;4992810;28;20085;-74
2023/02/17 06:12:55;;;;;;;0.10;0.10;;;7.30;99.90;;;;;;4993491;28;20027;-74
2023/02/17 06:15:21;;;;;;;0.10;0.10;;;7.30;99.90;;;;;;4993239;28;20030;-74
2023/02/17 06:17:46;;;;;;;0.10;0.10;;;7.30;99.90;;;;;;4993298;28;20022;-74
2023/02/17 06:20:12;;;;;;;0.10;0.10;;;7.30;99.90;;;;;;4994493;28;20041;-74
2023/02/17 06:22:38;;;;;;;0.10;0.10;;;7.30;99.90;;;;;;4997128;28;20030;-74
2023/02/17 06:25:04;;;;;;;0.10;0.10;;;7.30;99.90;;;;;;4996996;28;20392;-74
2023/02/17 06:27:30;;;;;;;0.10;0.10;;;7.30;99.90;;;;;;4996952;28;20109;-74
2023/02/17 06:29:55;;;;;;;0.10;0.10;;;7.30;99.90;;;;;;4997153;28;20026;-74
2023/02/17 06:32:21;;;;;;;0.10;0.10;;;7.30;99.90;;;;;;4995784;28;20026;-74
2023/02/17 06:34:46;;;;;;;0.10;0.10;;;7.40;99.90;;;;;;4996658;28;20033;-74
2023/02/17 06:37:12;;;;;;;0.10;0.10;;;7.40;99.90;;;;;;4996902;28;20029;-74
2023/02/17 06:39:37;;;;;;;0.10;0.10;;;7.40;99.90;;;;;;4996786;28;20019;-74
2023/02/17 06:42:03;;;;;;;0.10;0.10;;;7.40;99.90;;;;;;4996608;28;20043;-74
2023/02/17 06:44:30;;;;;;;0.10;0.10;;;7.40;99.90;;;;;;4996919;28;20463;-74
2023/02/17 06:46:55;;;;;;;0.10;0.10;;;7.40;99.90;;;;;;4996812;28;20414;-75
2023/02/17 06:49:21;;;;;;;0.10;0.10;;;7.40;99.90;;;;;;4996569;28;20019;-75
2023/02/17 06:51:46;;;;;;;0.10;0.10;;;7.40;99.90;;;;;;4996526;28;20030;-74
2023/02/17 06:54:12;;;;;;;0.05;0.05;;;7.40;99.90;;;;;;4996762;28;20026;-75
2023/02/17 06:56:37;;;;;;;0.15;0.15;;;7.40;99.90;;;;;;4996596;28;20039;-75
2023/02/17 06:59:03;;;;;;;0.10;0.10;;;7.30;99.90;;;;;;4996550;28;20475;-75
2023/02/17 07:01:29;;;;;;;0.10;0.10;;;7.30;99.90;;;;;;4996625;28;20495;-74
2023/02/17 07:03:55;;;;;;;0.08;0.08;;;7.30;99.90;;;;;;4995353;28;20024;-74
2023/02/17 07:06:22;;;;;;;0.10;0.10;;;7.30;99.90;;;;;;4996805;28;20037;-74
2023/02/17 07:08:48;;;;;;;0.10;0.10;;;7.30;99.90;;;;;;4996317;28;20502;-74
2023/02/17 07:11:14;;;;;;;0.10;0.10;;;7.30;99.90;;;;;;4996456;28;20035;-73
2023/02/17 07:13:40;;;;;;;0.10;0.10;;;7.30;99.90;;;;;;4996403;28;20033;-74
2023/02/17 07:16:07;;;;;;;0.10;0.10;;;7.30;99.90;;;;;;4996556;28;20038;-74
2023/02/17 07:18:32;;;;;;;0.10;0.10;;;7.30;99.90;;;;;;4994941;28;20026;-75
2023/02/17 07:20:58;;;;;;;0.10;0.10;;;7.20;99.90;;;;;;4996243;28;20097;-75
2023/02/17 07:23:24;;;;;;;0.10;0.10;;;7.30;99.90;;;;;;4996207;28;20113;-75
2023/02/17 07:25:49;;;;;;;0.10;0.10;;;7.30;99.90;;;;;;4996189;28;20053;-75
2023/02/17 07:28:15;;;;;;;0.10;0.10;;;7.30;99.90;;;;;;4996362;28;20077;-75
2023/02/17 07:30:42;;;;;;;0.10;0.10;;;7.30;99.90;;;;;;4995604;28;20418;-75
2023/02/17 07:33:09;;;;;;;0.10;0.10;;;7.30;99.90;;;;;;4994274;28;20457;-75
2023/02/17 07:35:42;;;;;;;0.10;0.10;;;7.30;99.90;;;;;;4995931;28;20080;-75
2023/02/17 07:38:08;;;;;;;0.10;0.10;;;7.30;99.90;;;;;;4995996;28;20076;-75
2023/02/17 07:40:33;;;;;;;0.10;0.10;;;7.40;99.90;;;;;;4995824;28;20038;-75
2023/02/17 07:42:59;;;;;;;0.10;0.10;;;7.30;99.90;;;;;;4995826;28;20102;-75
2023/02/17 07:45:24;;;;;;;0.10;0.10;;;7.30;99.90;;;;;;4995748;28;20506;-75
2023/02/17 07:47:50;;;;;;;0.10;0.10;;;7.40;99.90;;;;;;4996284;28;20026;-75
2023/02/17 07:50:16;;;;;;;0.10;0.10;;;7.40;99.90;;;;;;4994387;28;20026;-75
2023/02/17 07:52:41;;;;;;;0.10;0.10;;;7.30;99.90;;;;;;5011507;28;20034;-74
2023/02/17 07:55:07;;;;;;;0.10;0.10;;;7.40;99.90;;;;;;4995678;28;20042;-74
2023/02/17 07:57:33;;;;;;;0.10;0.10;;;7.40;99.90;;;;;;4995554;28;20026;-75
2023/02/17 07:59:58;;;;;;;0.10;0.10;;;7.40;99.90;;;;;;4994203;28;20026;-74
2023/02/17 08:02:24;;;;;;;0.10;0.10;;;7.50;99.90;;;;;;4995702;28;20022;-75
2023/02/17 08:04:51;;;;;;;0.10;0.10;;;7.50;99.90;;;;;;4995390;28;20033;-74
2023/02/17 08:07:17;;;;;;;0.10;0.10;;;7.50;99.90;;;;;;4995943;28;20464;-75
2023/02/17 08:15:11;;;;;;;0.10;0.10;;;7.60;99.90;;;;;;4995223;28;20037;-74
2023/02/17 08:17:37;;;;;;;0.13;0.13;;;7.60;99.90;;;;;;4995186;28;20034;-74
2023/02/17 08:20:03;;;;;;;0.10;0.10;;;7.60;99.90;;;;;;4995310;28;20022;-74
2023/02/17 08:22:29;;;;;;;0.13;0.13;;;7.50;99.90;;;;;;4994929;28;20027;-74
2023/02/17 08:24:55;;;;;;;0.10;0.10;;;7.50;99.90;;;;;;4993781;28;20403;-74
2023/02/17 08:27:20;;;;;;;0.10;0.10;;;7.60;99.90;;;;;;4995292;28;20018;-74
2023/02/17 08:29:46;;;;;;;0.10;0.10;;;7.50;99.90;;;;;;4994953;28;20038;-74
2023/02/17 08:32:14;;;;;;;0.10;0.10;;;7.50;99.90;;;;;;4994891;28;20394;-74
2023/02/17 08:34:39;;;;;;;0.00;0.00;;;7.50;99.90;;;;;;4994797;28;20407;-74
2023/02/17 08:37:06;;;;;;;0.10;0.10;;;7.50;99.90;;;;;;4994849;28;20029;-74
2023/02/17 08:39:33;;;;;;;0.10;0.10;;;7.50;99.90;;;;;;4993506;28;20054;-74
2023/02/17 08:41:59;;;;;;;0.05;0.05;;;7.60;99.90;;;;;;4994699;28;20077;-75
2023/02/17 08:44:24;;;;;;;0.10;0.10;;;7.60;99.90;;;;;;5009618;28;20471;-74
2023/02/17 08:46:51;;;;;;;0.10;0.10;;;7.60;99.90;;;;;;4994947;28;20044;-74
2023/02/17 08:49:19;;;;;;;0.10;0.10;;;7.60;99.90;;;;;;4994567;28;20022;-73
2023/02/17 08:51:45;;;;;;;0.10;0.10;;;7.60;99.90;;;;;;4994552;28;20112;-74
2023/02/17 08:54:11;;;;;;;0.10;0.10;;;7.60;99.90;;;;;;4994555;28;20070;-74
2023/02/17 08:56:38;;;;;;;0.08;0.08;;;7.60;99.90;;;;;;4994435;28;20031;-74
2023/02/17 08:59:06;;;;;;;0.10;0.10;;;7.60;99.90;;;;;;4994637;28;20101;-75
2023/02/17 09:01:31;;;;;;;0.10;0.10;;;7.60;99.90;;;;;;4994485;28;20034;-74
2023/02/17 09:03:58;;;;;;;0.10;0.10;;;7.60;99.90;;;;;;4994610;28;20019;-74
2023/02/17 09:06:32;;;;;;;0.10;0.10;;;7.60;99.90;;;;;;4993062;28;20026;-74
2023/02/17 09:08:57;;;;;;;0.10;0.10;;;7.60;99.90;;;;;;4994287;28;20030;-74
2023/02/17 09:11:23;;;;;;;0.10;0.10;;;7.60;99.90;;;;;;4992969;28;20054;-74
2023/02/17 09:13:49;;;;;;;0.10;0.10;;;7.70;99.90;;;;;;4994443;28;20499;-74
2023/02/17 09:16:14;;;;;;;0.10;0.10;;;7.70;99.90;;;;;;4994037;28;20026;-74
2023/02/17 09:18:40;;;;;;;0.10;0.10;;;7.70;99.90;;;;;;4994276;28;20033;-74
2023/02/17 09:21:10;;;;;;;0.10;0.10;;;7.70;99.90;;;;;;4994090;28;20084;-74
2023/02/17 09:23:36;;;;;;;0.10;0.10;;;7.70;99.90;;;;;;4994093;28;20080;-74
2023/02/17 09:26:04;;;;;;;0.10;0.10;;;7.70;99.90;;;;;;4994027;28;20434;-76
2023/02/17 09:28:31;;;;;;;0.10;0.10;;;7.80;99.90;;;;;;4993908;28;20479;-76
2023/02/17 09:30:56;;;;;;;0.10;0.10;;;7.80;99.90;;;;;;4993944;28;20034;-73
2023/02/17 09:33:22;;;;;;;0.10;0.10;;;7.80;99.90;;;;;;4993897;28;20392;-73
2023/02/17 09:35:48;;;;;;;0.10;0.10;;;7.80;99.90;;;;;;4993769;28;20507;-73
2023/02/17 09:38:14;;;;;;;0.10;0.10;;;7.80;99.90;;;;;;4992646;28;20502;-73
2023/02/17 09:40:48;;;;;;;0.10;0.10;;;7.80;99.90;;;;;;4993803;28;20022;-74
2023/02/17 09:43:21;;;;;;;0.10;0.10;;;7.80;99.90;;;;;;4994084;28;20030;-73
2023/02/17 09:45:52;;;;;;;0.10;0.10;;;7.90;99.90;;;;;;4993919;28;20034;-73
2023/02/17 09:48:22;;;;;;;0.10;0.10;;;7.90;99.90;;;;;;4994087;28;20467;-73
2023/02/17 09:51:09;;;;;;;0.10;0.10;;;7.90;99.90;;;;;;4992993;28;20030;-72
2023/02/17 09:54:09;;;;;;;0.10;0.10;;;8.00;99.90;;;;;;4996644;28;20062;-73
2023/02/17 09:56:38;;;;;;;0.10;0.10;;;8.00;99.90;;;;;;4994184;28;20499;-73
2023/02/17 09:59:27;;;;;;;0.10;0.10;;;8.00;99.90;;;;;;4997509;28;20074;-74
2023/02/17 10:01:54;;;;;;;0.10;0.10;;;8.00;99.90;;;;;;5012694;28;20026;-74
2023/02/17 10:04:24;;;;;;;0.10;0.10;;;8.10;99.90;;;;;;4997773;28;20035;-74
2023/02/17 10:07:01;;;;;;;0.10;0.10;;;8.10;99.90;;;;;;4997496;28;20034;-74
2023/02/17 10:09:33;;;;;;;0.20;0.20;;;8.10;99.90;;;;;;4997330;28;20030;-74
2023/02/17 10:12:09;;;;;;;0.10;0.10;;;8.10;99.90;;;;;;4997244;28;20032;-74
2023/02/17 10:15:02;;;;;;;0.20;0.20;;;8.10;99.90;;;;;;4997417;28;20022;-75
2023/02/17 10:17:40;;;;;;;0.17;0.17;;;8.10;99.90;;;;;;4996245;28;20483;-74
2023/02/17 10:20:08;;;;;;;0.10;0.10;;;8.10;99.90;;;;;;5012434;28;20117;-74
2023/02/17 10:22:34;;;;;;;0.10;0.10;;;8.10;99.90;;;;;;4997124;28;20018;-74
2023/02/17 10:25:12;;;;;;;0.10;0.10;;;8.10;99.90;;;;;;4997316;28;20161;-74
2023/02/17 10:27:44;;;;;;;0.10;0.10;;;8.10;99.90;;;;;;5012242;28;20026;-74
2023/02/17 10:30:47;;;;;;;0.10;0.10;;;8.10;99.90;;;;;;4997137;28;20041;-74
2023/02/17 10:33:27;;;;;;;0.10;0.10;;;8.10;99.90;;;;;;4978322;28;20043;-74
2023/02/17 10:36:09;;;;;;;0.10;0.10;;;8.20;99.90;;;;;;5012190;28;20798;-75
2023/02/17 10:38:45;;;;;;;0.20;0.20;;;8.20;99.90;;;;;;4996811;28;20031;-75
2023/02/17 10:41:16;;;;;;;0.10;0.10;;;8.20;99.90;;;;;;4996955;28;20053;-75
2023/02/17 10:43:43;;;;;;;0.10;0.10;;;8.20;99.90;;;;;;5011759;28;20029;-75
2023/02/17 10:46:13;;;;;;;0.20;0.20;;;8.20;99.90;;;;;;5012011;28;20396;-76
2023/02/17 10:48:48;;;;;;;0.10;0.10;;;8.20;99.90;;;;;;4997283;28;20023;-75
2023/02/17 10:51:17;;;;;;;0.10;0.10;;;8.20;99.90;;;;;;5012303;28;20399;-75
2023/02/17 10:53:46;;;;;;;0.10;0.10;;;8.20;99.90;;;;;;4996714;28;20038;-75
2023/02/17 10:56:45;;;;;;;0.10;0.10;;;8.30;99.90;;;;;;4996500;28;20030;-75
2023/02/17 10:59:25;;;;;;;0.20;0.20;;;8.30;99.90;;;;;;4995192;28;20108;-75
2023/02/17 11:01:59;;;;;;;0.10;0.10;;;8.30;99.90;;;;;;5011626;28;20055;-75
2023/02/17 11:04:25;;;;;;;;;;;8.30;99.90;;;;;;4996880;28;20488;-75
2023/02/17 11:06:54;;;;;;;0.20;0.20;;;8.30;99.90;;;;;;4996034;28;19992;-75
2023/02/17 11:09:31;;;;;;;0.10;0.10;;;8.40;99.90;;;;;;4994892;28;20049;-75
2023/02/17 11:11:59;;;;;;;0.10;0.10;;;8.40;99.90;;;;;;5007801;28;20030;-76
2023/02/17 11:14:35;;;;;;;0.10;0.10;;;8.40;99.90;;;;;;4983502;28;20049;-75
2023/02/17 11:17:11;;;;;;;0.10;0.10;;;8.40;99.90;;;;;;4988641;28;20088;-76
2023/02/17 11:19:37;;;;;;;0.10;0.10;;;8.50;99.90;;;;;;4986749;28;20113;-75
2023/02/17 11:22:05;;;;;;;0.10;0.10;;;8.50;99.90;;;;;;4990469;28;20034;-76
2023/02/17 11:24:34;;;;;;;0.10;0.10;;;8.50;99.90;;;;;;4982392;28;20125;-76
2023/02/17 11:27:04;;;;;;;0.10;0.10;;;8.60;99.90;;;;;;4990148;28;20081;-75
2023/02/17 11:29:31;;;;;;;0.10;0.10;;;8.60;99.90;;;;;;4987361;28;20023;-75
2023/02/17 11:32:09;;;;;;;0.10;0.10;;;8.60;99.90;;;;;;4989390;28;20072;-75
2023/02/17 11:34:38;;;;;;;0.10;0.10;;;8.60;99.90;;;;;;4985252;28;20110;-76
2023/02/17 11:37:13;;;;;;;0.10;0.10;;;8.60;99.90;;;;;;4985962;28;20392;-75
2023/02/17 11:39:41;;;;;;;0.10;0.10;;;8.60;99.90;;;;;;4993111;28;20022;-76
2023/02/17 11:42:22;;;;;;;0.10;0.10;;;8.60;99.90;;;;;;5000471;28;20042;-76
2023/02/17 11:44:48;;;;;;;0.10;0.10;;;8.70;99.90;;;;;;5001942;28;20554;-76
2023/02/17 11:47:34;;;;;;;0.10;0.10;;;8.70;99.90;;;;;;4998073;28;20137;-76
2023/02/17 11:50:09;;;;;;;0.10;0.10;;;8.70;99.90;;;;;;5010500;28;20518;-75
2023/02/17 11:52:58;;;;;;;0.10;0.10;;;8.70;99.90;;;;;;4995405;28;20030;-76
2023/02/17 11:55:44;;;;;;;0.10;0.10;;;8.80;99.90;;;;;;4993964;28;20049;-75
2023/02/17 11:58:12;;;;;;;0.10;0.10;;;8.90;99.90;;;;;;4995032;28;20031;-75
2023/02/17 12:00:50;;;;;;;0.10;0.10;;;9.00;99.90;;;;;;4997366;28;20022;-76
2023/02/17 12:03:39;;;;;;;0.17;0.17;;;9.00;99.90;;;;;;4997895;28;20018;-76
2023/02/17 12:06:16;;;;;;;0.10;0.10;;;9.10;99.90;;;;;;5000081;28;20019;-76
2023/02/17 12:09:14;;;;;;;0.10;0.10;;;9.10;99.90;;;;;;4988193;28;20499;-75
2023/02/17 12:12:24;;;;;;;0.17;0.17;;;9.00;99.90;;;;;;4988483;28;20051;-75
2023/02/17 12:15:14;;;;;;;0.20;0.20;;;9.00;99.90;;;;;;4945709;28;20042;-75
2023/02/17 12:18:03;;;;;;;0.05;0.05;;;9.00;99.90;;;;;;4994699;28;20069;-76
2023/02/17 12:20:44;;;;;;;0.10;0.10;;;8.90;99.90;;;;;;4994917;28;20018;-76
2023/02/17 12:23:51;;;;;;;0.10;0.10;;;8.90;99.90;;;;;;4994905;28;20022;-75
2023/02/17 12:26:38;;;;;;;0.10;0.10;;;9.00;99.90;;;;;;5009756;28;20112;-75
2023/02/17 12:29:25;;;;;;;0.10;0.10;;;9.00;99.90;;;;;;5010078;28;20034;-76
2023/02/17 12:32:18;;;;;;;0.20;0.20;;;9.00;99.90;;;;;;5009433;28;20099;-76
2023/02/17 12:34:52;;;;;;;0.10;0.10;;;8.90;99.90;;;;;;4994834;28;20395;-75
2023/02/17 12:37:49;;;;;;;0.20;0.20;;;9.10;99.90;;;;;;4994618;28;20033;-75
2023/02/17 12:40:30;;;;;;;0.13;0.13;;;9.10;99.90;;;;;;4967872;28;20045;-76
2023/02/17 12:43:04;;;;;;;0.20;0.20;;;9.00;99.90;;;;;;4976172;28;20506;-76
2023/02/17 12:45:41;;;;;;;0.10;0.10;;;9.00;99.90;;;;;;5013668;28;20486;-76
2023/02/17 12:48:43;;;;;;;0.10;0.10;;;9.00;99.90;;;;;;5013936;28;20364;-76
2023/02/17 12:51:16;;;;;;;0.10;0.10;;;9.00;99.90;;;;;;4982708;28;20088;-76
2023/02/17 12:54:16;;;;;;;0.10;0.10;;;9.00;99.90;;;;;;5013965;28;20394;-76
2023/02/17 12:57:12;;;;;;;0.13;0.13;;;9.10;99.90;;;;;;5014364;28;20065;-76
2023/02/17 12:59:39;;;;;;;0.10;0.10;;;9.10;99.90;;;;;;5014264;28;20387;-76
2023/02/17 13:02:11;;;;;;;0.20;0.20;;;9.20;99.90;;;;;;5012727;28;20022;-76
2023/02/17 13:04:38;;;;;;;0.10;0.10;;;9.20;99.90;;;;;;5014286;28;20022;-76
2023/02/17 13:07:12;;;;;;;0.10;0.10;;;9.30;99.90;;;;;;5013911;28;20029;-77
2023/02/17 13:09:44;;;;;;;0.10;0.10;;;9.30;99.90;;;;;;5013665;28;20072;-77
2023/02/17 13:12:22;;;;;;;0.03;0.03;;;9.40;99.90;;;;;;5012798;28;20487;-77
2023/02/17 13:14:54;;;;;;;0.10;0.10;;;9.30;99.90;;;;;;5013809;28;20030;-77
2023/02/17 13:17:33;;;;;;;0.10;0.10;;;9.30;99.90;;;;;;5012604;28;20026;-77
2023/02/17 13:20:10;;;;;;;0.15;0.15;;;9.30;99.90;;;;;;5013726;28;20017;-77